sensor_id;sensor_type;location;lat;lon;timestamp;temperature;humidity
24444;DHT22;13346;50.984;5.822;2023-05-10T00:01:53;12.80;99.90
24444;DHT22;13346;50.984;5.822;2023-05-10T00:04:20;12.80;99.90
24444;DHT22;13346;50.984;5.822;2023-05-10T00:06:48;12.70;99.90
24444;DHT22;13346;50.984;5.822;2023-05-10T00:09:16;12.70;99.90
24444;DHT22;13346;50.984;5.822;2023-05-10T00:11:43;12.70;99.90
24444;DHT22;13346;50.984;5.822;2023-05-10T00:14:10;12.70;99.90
24444;DHT22;13346;50.984;5.822;2023-05-10T00:16:38;12.70;99.90
24444;DHT22;13346;50.984;5.822;2023-05-10T00:19:05;12.70;99.90
24444;DHT22;13346;50.984;5.822;2023-05-10T00:21:32;12.70;99.90
24444;DHT22;13346;50.984;5.822;2023-05-10T00:24:01;12.70;99.90
24444;DHT22;13346;50.984;5.822;2023-05-10T00:26:28;12.70;99.90
24444;DHT22;13346;50.984;5.822;2023-05-10T00:28:56;12.80;99.90
24444;DHT22;13346;50.984;5.822;2023-05-10T00:31:24;12.80;99.90
24444;DHT22;13346;50.984;5.822;2023-05-10T00:33:51;12.80;99.90
24444;DHT22;13346;50.984;5.822;2023-05-10T00:36:19;12.80;99.90
24444;DHT22;13346;50.984;5.822;2023-05-10T00:38:46;12.80;99.90
24444;DHT22;13346;50.984;5.822;2023-05-10T00:41:15;12.80;99.90
24444;DHT22;13346;50.984;5.822;2023-05-10T00:43:43;12.80;99.90
24444;DHT22;13346;50.984;5.822;2023-05-10T00:46:10;12.80;99.90
24444;DHT22;13346;50.984;5.822;2023-05-10T00:48:38;12.80;99.90
24444;DHT22;13346;50.984;5.822;2023-05-10T00:51:05;12.80;99.90
24444;DHT22;13346;50.984;5.822;2023-05-10T00:53:33;12.80;99.90
24444;DHT22;13346;50.984;5.822;2023-05-10T00:56:01;12.80;99.90
24444;DHT22;13346;50.984;5.822;2023-05-10T00:58:30;12.90;99.90
24444;DHT22;13346;50.984;5.822;2023-05-10T01:00:57;12.90;99.90
24444;DHT22;13346;50.984;5.822;2023-05-10T01:03:25;12.90;99.90
24444;DHT22;13346;50.984;5.822;2023-05-10T01:05:52;12.90;99.90
24444;DHT22;13346;50.984;5.822;2023-05-10T01:08:21;12.90;99.90
24444;DHT22;13346;50.984;5.822;2023-05-10T01:10:48;12.90;99.90
24444;DHT22;13346;50.984;5.822;2023-05-10T01:13:23;12.90;99.90
24444;DHT22;13346;50.984;5.822;2023-05-10T01:15:56;13.00;99.90
24444;DHT22;13346;50.984;5.822;2023-05-10T01:18:24;13.00;99.90
24444;DHT22;13346;50.984;5.822;2023-05-10T01:20:59;13.00;99.90
24444;DHT22;13346;50.984;5.822;2023-05-10T01:32:43;12.90;99.90
24444;DHT22;13346;50.984;5.822;2023-05-10T01:35:18;12.90;99.90
24444;DHT22;13346;50.984;5.822;2023-05-10T01:37:59;12.90;99.90
24444;DHT22;13346;50.984;5.822;2023-05-10T01:40:32;12.90;99.90
24444;DHT22;13346;50.984;5.822;2023-05-10T01:43:04;12.90;99.90
24444;DHT22;13346;50.984;5.822;2023-05-10T01:45:38;12.90;99.90
24444;DHT22;13346;50.984;5.822;2023-05-10T01:48:11;12.90;99.90
24444;DHT22;13346;50.984;5.822;2023-05-10T01:50:43;12.90;99.90
24444;DHT22;13346;50.984;5.822;2023-05-10T01:53:12;12.90;99.90
24444;DHT22;13346;50.984;5.822;2023-05-10T01:55:44;12.80;99.90
24444;DHT22;13346;50.984;5.822;2023-05-10T01:58:15;12.90;99.90
24444;DHT22;13346;50.984;5.822;2023-05-10T02:00:45;12.80;99.90
24444;DHT22;13346;50.984;5.822;2023-05-10T02:03:15;12.80;99.90
24444;DHT22;13346;50.984;5.822;2023-05-10T02:05:43;12.80;99.90
24444;DHT22;13346;50.984;5.822;2023-05-10T02:08:13;12.80;99.90
24444;DHT22;13346;50.984;5.822;2023-05-10T02:10:43;12.80;99.90
24444;DHT22;13346;50.984;5.822;2023-05-10T02:13:12;12.80;99.90
24444;DHT22;13346;50.984;5.822;2023-05-10T02:15:40;12.80;99.90
24444;DHT22;13346;50.984;5.822;2023-05-10T02:18:09;12.80;99.90
24444;DHT22;13346;50.984;5.822;2023-05-10T02:20:39;12.80;99.90
24444;DHT22;13346;50.984;5.822;2023-05-10T02:23:07;12.80;99.90
24444;DHT22;13346;50.984;5.822;2023-05-10T02:25:36;12.80;99.90
24444;DHT22;13346;50.984;5.822;2023-05-10T02:28:06;12.80;99.90
24444;DHT22;13346;50.984;5.822;2023-05-10T02:30:34;12.70;99.90
24444;DHT22;13346;50.984;5.822;2023-05-10T02:33:02;12.70;99.90
24444;DHT22;13346;50.984;5.822;2023-05-10T02:35:31;12.70;99.90
24444;DHT22;13346;50.984;5.822;2023-05-10T02:38:01;12.70;99.90
24444;DHT22;13346;50.984;5.822;2023-05-10T02:40:28;12.70;99.90
24444;DHT22;13346;50.984;5.822;2023-05-10T02:42:57;12.70;99.90
24444;DHT22;13346;50.984;5.822;2023-05-10T02:45:29;12.60;99.90
24444;DHT22;13346;50.984;5.822;2023-05-10T02:47:57;12.60;99.90
24444;DHT22;13346;50.984;5.822;2023-05-10T02:50:26;12.60;99.90
24444;DHT22;13346;50.984;5.822;2023-05-10T02:52:59;12.60;99.90
24444;DHT22;13346;50.984;5.822;2023-05-10T02:55:32;12.60;99.90
24444;DHT22;13346;50.984;5.822;2023-05-10T02:58:02;12.60;99.90
24444;DHT22;13346;50.984;5.822;2023-05-10T03:00:30;12.50;99.90
24444;DHT22;13346;50.984;5.822;2023-05-10T03:02:57;12.50;99.90
24444;DHT22;13346;50.984;5.822;2023-05-10T03:05:25;12.50;99.90
24444;DHT22;13346;50.984;5.822;2023-05-10T03:07:52;12.60;99.90
24444;DHT22;13346;50.984;5.822;2023-05-10T03:10:25;12.50;99.90
24444;DHT22;13346;50.984;5.822;2023-05-10T03:13:06;12.50;99.90
24444;DHT22;13346;50.984;5.822;2023-05-10T03:15:40;12.60;99.90
24444;DHT22;13346;50.984;5.822;2023-05-10T03:18:11;12.50;99.90
24444;DHT22;13346;50.984;5.822;2023-05-10T03:20:42;12.50;99.90
24444;DHT22;13346;50.984;5.822;2023-05-10T03:23:13;12.50;99.90
24444;DHT22;13346;50.984;5.822;2023-05-10T03:25:48;12.50;99.90
24444;DHT22;13346;50.984;5.822;2023-05-10T03:28:18;12.50;99.90
24444;DHT22;13346;50.984;5.822;2023-05-10T03:30:46;12.50;99.90
24444;DHT22;13346;50.984;5.822;2023-05-10T03:33:13;12.50;99.90
24444;DHT22;13346;50.984;5.822;2023-05-10T03:35:41;12.50;99.90
24444;DHT22;13346;50.984;5.822;2023-05-10T03:38:11;12.50;99.90
24444;DHT22;13346;50.984;5.822;2023-05-10T03:40:39;12.50;99.90
24444;DHT22;13346;50.984;5.822;2023-05-10T03:43:06;12.50;99.90
24444;DHT22;13346;50.984;5.822;2023-05-10T03:45:34;12.50;99.90
24444;DHT22;13346;50.984;5.822;2023-05-10T03:48:02;12.50;99.90
24444;DHT22;13346;50.984;5.822;2023-05-10T03:50:29;12.50;99.90
24444;DHT22;13346;50.984;5.822;2023-05-10T03:52:56;12.50;99.90
24444;DHT22;13346;50.984;5.822;2023-05-10T03:55:23;12.50;99.90
24444;DHT22;13346;50.984;5.822;2023-05-10T03:57:51;12.50;99.90
24444;DHT22;13346;50.984;5.822;2023-05-10T04:00:20;12.50;99.90
24444;DHT22;13346;50.984;5.822;2023-05-10T04:02:48;12.50;99.90
24444;DHT22;13346;50.984;5.822;2023-05-10T04:05:15;12.50;99.90
24444;DHT22;13346;50.984;5.822;2023-05-10T04:07:42;12.40;99.90
24444;DHT22;13346;50.984;5.822;2023-05-10T04:10:11;12.50;99.90
24444;DHT22;13346;50.984;5.822;2023-05-10T04:12:38;12.40;99.90
24444;DHT22;13346;50.984;5.822;2023-05-10T04:15:06;12.40;99.90
24444;DHT22;13346;50.984;5.822;2023-05-10T04:17:33;12.40;99.90
24444;DHT22;13346;50.984;5.822;2023-05-10T04:20:02;12.40;99.90
24444;DHT22;13346;50.984;5.822;2023-05-10T04:22:31;12.50;99.90
24444;DHT22;13346;50.984;5.822;2023-05-10T04:24:58;12.40;99.90
24444;DHT22;13346;50.984;5.822;2023-05-10T04:27:25;12.50;99.90
24444;DHT22;13346;50.984;5.822;2023-05-10T04:29:53;12.50;99.90
24444;DHT22;13346;50.984;5.822;2023-05-10T04:32:20;12.40;99.90
24444;DHT22;13346;50.984;5.822;2023-05-10T04:34:47;12.50;99.90
24444;DHT22;13346;50.984;5.822;2023-05-10T04:37:16;12.50;99.90
24444;DHT22;13346;50.984;5.822;2023-05-10T04:39:43;12.50;99.90
24444;DHT22;13346;50.984;5.822;2023-05-10T04:42:10;12.50;99.90
24444;DHT22;13346;50.984;5.822;2023-05-10T04:44:38;12.50;99.90
24444;DHT22;13346;50.984;5.822;2023-05-10T04:47:05;12.50;99.90
24444;DHT22;13346;50.984;5.822;2023-05-10T04:49:32;12.50;99.90
24444;DHT22;13346;50.984;5.822;2023-05-10T04:51:59;12.60;99.90
24444;DHT22;13346;50.984;5.822;2023-05-10T04:54:28;12.60;99.90
24444;DHT22;13346;50.984;5.822;2023-05-10T04:56:55;12.60;99.90
24444;DHT22;13346;50.984;5.822;2023-05-10T04:59:22;12.60;99.90
24444;DHT22;13346;50.984;5.822;2023-05-10T05:01:49;12.60;99.90
24444;DHT22;13346;50.984;5.822;2023-05-10T05:04:16;12.60;99.90
24444;DHT22;13346;50.984;5.822;2023-05-10T05:06:44;12.50;99.90
24444;DHT22;13346;50.984;5.822;2023-05-10T05:09:11;12.60;99.90
24444;DHT22;13346;50.984;5.822;2023-05-10T05:11:39;12.60;99.90
24444;DHT22;13346;50.984;5.822;2023-05-10T05:14:07;12.70;99.90
24444;DHT22;13346;50.984;5.822;2023-05-10T05:16:34;12.70;99.90
24444;DHT22;13346;50.984;5.822;2023-05-10T05:19:01;12.80;99.90
24444;DHT22;13346;50.984;5.822;2023-05-10T05:21:28;12.80;99.90
24444;DHT22;13346;50.984;5.822;2023-05-10T05:23:55;12.80;99.90
24444;DHT22;13346;50.984;5.822;2023-05-10T05:26:23;12.80;99.90
24444;DHT22;13346;50.984;5.822;2023-05-10T05:28:51;12.80;99.90
24444;DHT22;13346;50.984;5.822;2023-05-10T05:31:20;12.80;99.90
24444;DHT22;13346;50.984;5.822;2023-05-10T05:33:47;12.80;99.90
24444;DHT22;13346;50.984;5.822;2023-05-10T05:36:15;12.80;99.90
24444;DHT22;13346;50.984;5.822;2023-05-10T05:38:42;12.80;99.90
24444;DHT22;13346;50.984;5.822;2023-05-10T05:41:09;12.80;99.90
24444;DHT22;13346;50.984;5.822;2023-05-10T05:43:36;12.80;99.90
24444;DHT22;13346;50.984;5.822;2023-05-10T05:46:05;12.80;99.90
24444;DHT22;13346;50.984;5.822;2023-05-10T05:48:32;12.80;99.90
24444;DHT22;13346;50.984;5.822;2023-05-10T05:50:59;12.80;99.90
24444;DHT22;13346;50.984;5.822;2023-05-10T05:53:26;12.80;99.90
24444;DHT22;13346;50.984;5.822;2023-05-10T05:55:54;12.90;99.90
24444;DHT22;13346;50.984;5.822;2023-05-10T05:58:22;12.90;99.90
24444;DHT22;13346;50.984;5.822;2023-05-10T06:00:50;12.80;99.90
24444;DHT22;13346;50.984;5.822;2023-05-10T06:03:19;12.80;99.90
24444;DHT22;13346;50.984;5.822;2023-05-10T06:05:47;12.90;99.90
24444;DHT22;13346;50.984;5.822;2023-05-10T06:08:14;13.00;99.90
24444;DHT22;13346;50.984;5.822;2023-05-10T06:10:41;13.10;99.90
24444;DHT22;13346;50.984;5.822;2023-05-10T06:13:09;13.10;99.90
24444;DHT22;13346;50.984;5.822;2023-05-10T06:15:36;13.10;99.90
24444;DHT22;13346;50.984;5.822;2023-05-10T06:18:03;13.10;99.90
24444;DHT22;13346;50.984;5.822;2023-05-10T06:20:32;12.90;99.90
24444;DHT22;13346;50.984;5.822;2023-05-10T06:23:00;13.00;99.90
24444;DHT22;13346;50.984;5.822;2023-05-10T06:25:27;13.00;99.90
24444;DHT22;13346;50.984;5.822;2023-05-10T06:27:54;13.00;99.90
24444;DHT22;13346;50.984;5.822;2023-05-10T06:30:24;13.10;99.90
24444;DHT22;13346;50.984;5.822;2023-05-10T06:32:53;13.00;99.90
24444;DHT22;13346;50.984;5.822;2023-05-10T06:35:21;13.00;99.90
24444;DHT22;13346;50.984;5.822;2023-05-10T06:37:50;12.90;99.90
24444;DHT22;13346;50.984;5.822;2023-05-10T06:40:17;12.90;99.90
24444;DHT22;13346;50.984;5.822;2023-05-10T06:42:45;12.90;99.90
24444;DHT22;13346;50.984;5.822;2023-05-10T06:45:12;12.90;99.90
24444;DHT22;13346;50.984;5.822;2023-05-10T06:47:40;13.10;99.90
24444;DHT22;13346;50.984;5.822;2023-05-10T06:50:08;13.10;99.90
24444;DHT22;13346;50.984;5.822;2023-05-10T06:52:35;13.00;99.90
24444;DHT22;13346;50.984;5.822;2023-05-10T06:55:05;13.10;99.90
24444;DHT22;13346;50.984;5.822;2023-05-10T06:57:32;13.20;99.90
24444;DHT22;13346;50.984;5.822;2023-05-10T06:59:59;13.10;99.90
24444;DHT22;13346;50.984;5.822;2023-05-10T07:02:27;13.20;99.90
24444;DHT22;13346;50.984;5.822;2023-05-10T07:04:54;13.10;99.90
24444;DHT22;13346;50.984;5.822;2023-05-10T07:07:22;13.20;99.90
24444;DHT22;13346;50.984;5.822;2023-05-10T07:09:49;13.20;99.90
24444;DHT22;13346;50.984;5.822;2023-05-10T07:12:18;13.10;99.90
24444;DHT22;13346;50.984;5.822;2023-05-10T07:14:45;13.10;99.90
24444;DHT22;13346;50.984;5.822;2023-05-10T07:17:13;13.30;99.90
24444;DHT22;13346;50.984;5.822;2023-05-10T07:19:40;13.20;99.90
24444;DHT22;13346;50.984;5.822;2023-05-10T07:22:07;13.10;99.90
24444;DHT22;13346;50.984;5.822;2023-05-10T07:24:34;12.80;99.90
24444;DHT22;13346;50.984;5.822;2023-05-10T07:27:02;12.80;99.90
24444;DHT22;13346;50.984;5.822;2023-05-10T07:29:31;12.80;99.90
24444;DHT22;13346;50.984;5.822;2023-05-10T07:31:58;12.80;99.90
24444;DHT22;13346;50.984;5.822;2023-05-10T07:34:26;12.90;99.90
24444;DHT22;13346;50.984;5.822;2023-05-10T07:36:53;12.90;99.90
24444;DHT22;13346;50.984;5.822;2023-05-10T07:39:21;12.90;99.90
24444;DHT22;13346;50.984;5.822;2023-05-10T07:41:48;12.90;99.90
24444;DHT22;13346;50.984;5.822;2023-05-10T07:44:15;12.80;99.90
24444;DHT22;13346;50.984;5.822;2023-05-10T07:46:45;12.80;99.90
24444;DHT22;13346;50.984;5.822;2023-05-10T07:49:16;12.90;99.90
24444;DHT22;13346;50.984;5.822;2023-05-10T07:51:43;12.90;99.90
24444;DHT22;13346;50.984;5.822;2023-05-10T07:54:10;12.90;99.90
24444;DHT22;13346;50.984;5.822;2023-05-10T07:56:38;12.90;99.90
24444;DHT22;13346;50.984;5.822;2023-05-10T07:59:07;13.10;99.90
24444;DHT22;13346;50.984;5.822;2023-05-10T08:01:34;13.00;99.90
24444;DHT22;13346;50.984;5.822;2023-05-10T08:04:03;13.10;99.90
24444;DHT22;13346;50.984;5.822;2023-05-10T08:06:30;13.20;99.90
24444;DHT22;13346;50.984;5.822;2023-05-10T08:08:58;13.30;99.90
24444;DHT22;13346;50.984;5.822;2023-05-10T08:11:25;13.40;99.90
24444;DHT22;13346;50.984;5.822;2023-05-10T08:13:53;13.50;99.90
24444;DHT22;13346;50.984;5.822;2023-05-10T08:16:21;13.40;99.90
24444;DHT22;13346;50.984;5.822;2023-05-10T08:18:48;13.60;99.90
24444;DHT22;13346;50.984;5.822;2023-05-10T08:21:17;13.60;99.90
24444;DHT22;13346;50.984;5.822;2023-05-10T08:23:45;13.90;99.90
24444;DHT22;13346;50.984;5.822;2023-05-10T08:26:12;13.70;99.90
24444;DHT22;13346;50.984;5.822;2023-05-10T08:28:39;13.80;99.90
24444;DHT22;13346;50.984;5.822;2023-05-10T08:31:06;13.60;99.90
24444;DHT22;13346;50.984;5.822;2023-05-10T08:33:34;13.70;99.90
24444;DHT22;13346;50.984;5.822;2023-05-10T08:36:01;13.70;99.90
24444;DHT22;13346;50.984;5.822;2023-05-10T08:38:29;13.90;99.90
24444;DHT22;13346;50.984;5.822;2023-05-10T08:40:57;13.80;99.90
24444;DHT22;13346;50.984;5.822;2023-05-10T08:43:27;13.90;99.90
24444;DHT22;13346;50.984;5.822;2023-05-10T08:45:55;13.80;99.90
24444;DHT22;13346;50.984;5.822;2023-05-10T08:48:23;14.30;99.90
24444;DHT22;13346;50.984;5.822;2023-05-10T08:50:53;14.10;99.90
24444;DHT22;13346;50.984;5.822;2023-05-10T08:53:24;14.10;99.90
24444;DHT22;13346;50.984;5.822;2023-05-10T08:55:54;13.70;99.90
24444;DHT22;13346;50.984;5.822;2023-05-10T08:58:22;13.90;99.90
24444;DHT22;13346;50.984;5.822;2023-05-10T09:00:49;13.90;99.90
24444;DHT22;13346;50.984;5.822;2023-05-10T09:03:18;13.90;99.90
24444;DHT22;13346;50.984;5.822;2023-05-10T09:05:45;13.70;99.90
24444;DHT22;13346;50.984;5.822;2023-05-10T09:08:13;13.90;99.90
24444;DHT22;13346;50.984;5.822;2023-05-10T09:10:43;13.90;99.90
24444;DHT22;13346;50.984;5.822;2023-05-10T09:13:12;13.70;99.90
24444;DHT22;13346;50.984;5.822;2023-05-10T09:15:41;14.00;99.90
24444;DHT22;13346;50.984;5.822;2023-05-10T09:18:08;13.60;99.90
24444;DHT22;13346;50.984;5.822;2023-05-10T09:20:35;13.70;99.90
24444;DHT22;13346;50.984;5.822;2023-05-10T09:23:02;13.90;99.90
24444;DHT22;13346;50.984;5.822;2023-05-10T09:25:30;13.50;99.90
24444;DHT22;13346;50.984;5.822;2023-05-10T09:27:59;13.20;99.90
24444;DHT22;13346;50.984;5.822;2023-05-10T09:30:29;13.40;99.90
24444;DHT22;13346;50.984;5.822;2023-05-10T09:32:57;13.50;99.90
24444;DHT22;13346;50.984;5.822;2023-05-10T09:35:27;13.30;99.90
24444;DHT22;13346;50.984;5.822;2023-05-10T09:37:58;13.70;99.90
24444;DHT22;13346;50.984;5.822;2023-05-10T09:40:27;13.90;99.90
24444;DHT22;13346;50.984;5.822;2023-05-10T09:42:56;14.40;99.90
24444;DHT22;13346;50.984;5.822;2023-05-10T09:45:24;14.60;99.90
24444;DHT22;13346;50.984;5.822;2023-05-10T09:47:53;13.90;99.90
24444;DHT22;13346;50.984;5.822;2023-05-10T09:50:21;13.90;99.90
24444;DHT22;13346;50.984;5.822;2023-05-10T09:52:50;14.10;99.90
24444;DHT22;13346;50.984;5.822;2023-05-10T09:55:19;14.30;99.90
24444;DHT22;13346;50.984;5.822;2023-05-10T09:57:48;13.90;99.90
24444;DHT22;13346;50.984;5.822;2023-05-10T10:00:19;14.00;99.90
24444;DHT22;13346;50.984;5.822;2023-05-10T10:02:47;14.50;99.90
24444;DHT22;13346;50.984;5.822;2023-05-10T10:05:16;14.20;99.90
24444;DHT22;13346;50.984;5.822;2023-05-10T10:07:44;14.70;99.90
24444;DHT22;13346;50.984;5.822;2023-05-10T10:10:11;14.90;99.90
24444;DHT22;13346;50.984;5.822;2023-05-10T10:12:40;15.10;99.90
24444;DHT22;13346;50.984;5.822;2023-05-10T10:15:08;14.90;99.90
24444;DHT22;13346;50.984;5.822;2023-05-10T10:17:36;15.00;99.90
24444;DHT22;13346;50.984;5.822;2023-05-10T10:20:06;15.50;99.90
24444;DHT22;13346;50.984;5.822;2023-05-10T10:22:35;14.80;99.90
24444;DHT22;13346;50.984;5.822;2023-05-10T10:25:04;15.50;99.90
24444;DHT22;13346;50.984;5.822;2023-05-10T10:27:39;15.80;99.90
24444;DHT22;13346;50.984;5.822;2023-05-10T10:30:17;15.60;99.90
24444;DHT22;13346;50.984;5.822;2023-05-10T10:35:44;15.30;99.90
24444;DHT22;13346;50.984;5.822;2023-05-10T10:38:14;15.00;99.90
24444;DHT22;13346;50.984;5.822;2023-05-10T10:40:41;14.80;99.90
24444;DHT22;13346;50.984;5.822;2023-05-10T10:43:23;14.50;99.90
24444;DHT22;13346;50.984;5.822;2023-05-10T10:46:14;14.70;99.90
24444;DHT22;13346;50.984;5.822;2023-05-10T10:48:43;14.90;99.90
24444;DHT22;13346;50.984;5.822;2023-05-10T10:51:14;15.40;99.90
24444;DHT22;13346;50.984;5.822;2023-05-10T10:53:43;15.40;99.90
24444;DHT22;13346;50.984;5.822;2023-05-10T10:56:11;15.00;99.90
24444;DHT22;13346;50.984;5.822;2023-05-10T10:58:41;15.50;99.90
24444;DHT22;13346;50.984;5.822;2023-05-10T11:01:13;15.40;99.90
24444;DHT22;13346;50.984;5.822;2023-05-10T11:03:41;15.30;99.90
24444;DHT22;13346;50.984;5.822;2023-05-10T11:06:08;15.50;99.90
24444;DHT22;13346;50.984;5.822;2023-05-10T11:08:43;15.20;99.90
24444;DHT22;13346;50.984;5.822;2023-05-10T11:11:14;15.30;99.90
24444;DHT22;13346;50.984;5.822;2023-05-10T11:13:43;15.40;99.90
24444;DHT22;13346;50.984;5.822;2023-05-10T11:16:16;15.60;99.90
24444;DHT22;13346;50.984;5.822;2023-05-10T11:18:59;15.10;99.90
24444;DHT22;13346;50.984;5.822;2023-05-10T11:21:28;15.40;99.90
24444;DHT22;13346;50.984;5.822;2023-05-10T11:23:58;16.00;99.90
24444;DHT22;13346;50.984;5.822;2023-05-10T11:26:35;15.70;99.90
24444;DHT22;13346;50.984;5.822;2023-05-10T11:29:02;16.40;99.90
24444;DHT22;13346;50.984;5.822;2023-05-10T11:31:30;16.40;99.90
24444;DHT22;13346;50.984;5.822;2023-05-10T11:33:59;16.90;99.90
24444;DHT22;13346;50.984;5.822;2023-05-10T11:36:28;16.50;99.90
24444;DHT22;13346;50.984;5.822;2023-05-10T11:38:58;16.70;99.90
24444;DHT22;13346;50.984;5.822;2023-05-10T11:41:27;16.30;99.90
24444;DHT22;13346;50.984;5.822;2023-05-10T11:43:56;16.00;99.90
24444;DHT22;13346;50.984;5.822;2023-05-10T11:46:25;16.20;99.90
24444;DHT22;13346;50.984;5.822;2023-05-10T11:48:54;16.30;99.90
24444;DHT22;13346;50.984;5.822;2023-05-10T11:51:22;16.70;99.90
24444;DHT22;13346;50.984;5.822;2023-05-10T11:53:50;16.40;99.90
24444;DHT22;13346;50.984;5.822;2023-05-10T11:56:19;16.10;99.90
24444;DHT22;13346;50.984;5.822;2023-05-10T11:58:52;16.20;99.90
24444;DHT22;13346;50.984;5.822;2023-05-10T12:01:21;16.20;99.90
24444;DHT22;13346;50.984;5.822;2023-05-10T12:03:48;16.60;99.90
24444;DHT22;13346;50.984;5.822;2023-05-10T12:06:16;17.10;99.90
24444;DHT22;13346;50.984;5.822;2023-05-10T12:08:45;17.20;99.90
24444;DHT22;13346;50.984;5.822;2023-05-10T12:11:12;16.20;99.90
24444;DHT22;13346;50.984;5.822;2023-05-10T12:13:43;15.20;99.90
24444;DHT22;13346;50.984;5.822;2023-05-10T12:16:16;15.30;99.90
24444;DHT22;13346;50.984;5.822;2023-05-10T12:18:44;16.30;99.90
24444;DHT22;13346;50.984;5.822;2023-05-10T12:21:12;17.10;99.90
24444;DHT22;13346;50.984;5.822;2023-05-10T12:23:39;16.00;99.90
24444;DHT22;13346;50.984;5.822;2023-05-10T12:26:09;15.80;99.90
24444;DHT22;13346;50.984;5.822;2023-05-10T12:28:37;15.70;99.90
24444;DHT22;13346;50.984;5.822;2023-05-10T12:31:06;15.80;99.90
24444;DHT22;13346;50.984;5.822;2023-05-10T12:33:37;15.90;99.90
24444;DHT22;13346;50.984;5.822;2023-05-10T12:36:08;17.00;99.90
24444;DHT22;13346;50.984;5.822;2023-05-10T12:38:36;16.20;99.90
24444;DHT22;13346;50.984;5.822;2023-05-10T12:41:05;16.70;99.90
24444;DHT22;13346;50.984;5.822;2023-05-10T12:43:33;17.50;99.90
24444;DHT22;13346;50.984;5.822;2023-05-10T12:46:06;16.10;99.90
24444;DHT22;13346;50.984;5.822;2023-05-10T12:48:34;16.80;99.90
24444;DHT22;13346;50.984;5.822;2023-05-10T12:51:02;17.00;99.90
24444;DHT22;13346;50.984;5.822;2023-05-10T12:53:29;17.00;99.90
24444;DHT22;13346;50.984;5.822;2023-05-10T12:55:56;16.90;99.90
24444;DHT22;13346;50.984;5.822;2023-05-10T12:58:24;18.20;99.90
24444;DHT22;13346;50.984;5.822;2023-05-10T13:00:51;17.50;99.90
24444;DHT22;13346;50.984;5.822;2023-05-10T13:03:20;17.20;99.90
24444;DHT22;13346;50.984;5.822;2023-05-10T13:05:47;17.60;99.90
24444;DHT22;13346;50.984;5.822;2023-05-10T13:08:15;17.70;99.90
24444;DHT22;13346;50.984;5.822;2023-05-10T13:10:42;17.20;99.90
24444;DHT22;13346;50.984;5.822;2023-05-10T13:13:09;17.00;99.90
24444;DHT22;13346;50.984;5.822;2023-05-10T13:15:37;17.20;99.90
24444;DHT22;13346;50.984;5.822;2023-05-10T13:18:04;16.40;99.90
24444;DHT22;13346;50.984;5.822;2023-05-10T13:20:32;16.40;99.90
24444;DHT22;13346;50.984;5.822;2023-05-10T13:23:00;15.80;99.90
24444;DHT22;13346;50.984;5.822;2023-05-10T13:25:28;16.00;99.90
24444;DHT22;13346;50.984;5.822;2023-05-10T13:27:55;16.70;99.90
24444;DHT22;13346;50.984;5.822;2023-05-10T13:30:23;16.80;99.90
24444;DHT22;13346;50.984;5.822;2023-05-10T13:32:50;16.70;99.90
24444;DHT22;13346;50.984;5.822;2023-05-10T13:35:18;16.00;99.90
24444;DHT22;13346;50.984;5.822;2023-05-10T13:37:46;16.50;99.90
24444;DHT22;13346;50.984;5.822;2023-05-10T13:40:13;16.10;99.90
24444;DHT22;13346;50.984;5.822;2023-05-10T13:42:41;16.30;99.90
24444;DHT22;13346;50.984;5.822;2023-05-10T13:45:09;16.10;99.90
24444;DHT22;13346;50.984;5.822;2023-05-10T13:47:37;16.80;99.90
24444;DHT22;13346;50.984;5.822;2023-05-10T13:50:05;16.50;99.90
24444;DHT22;13346;50.984;5.822;2023-05-10T13:52:33;16.90;99.90
24444;DHT22;13346;50.984;5.822;2023-05-10T13:55:02;15.90;99.90
24444;DHT22;13346;50.984;5.822;2023-05-10T13:57:29;15.60;99.90
24444;DHT22;13346;50.984;5.822;2023-05-10T13:59:57;15.40;99.90
24444;DHT22;13346;50.984;5.822;2023-05-10T14:02:24;15.70;99.90
24444;DHT22;13346;50.984;5.822;2023-05-10T14:04:53;16.20;99.90
24444;DHT22;13346;50.984;5.822;2023-05-10T14:07:20;16.30;99.90
24444;DHT22;13346;50.984;5.822;2023-05-10T14:09:47;17.00;99.90
24444;DHT22;13346;50.984;5.822;2023-05-10T14:12:15;16.40;99.90
24444;DHT22;13346;50.984;5.822;2023-05-10T14:14:43;16.30;99.90
24444;DHT22;13346;50.984;5.822;2023-05-10T14:17:10;16.10;99.90
24444;DHT22;13346;50.984;5.822;2023-05-10T14:19:38;15.90;99.90
24444;DHT22;13346;50.984;5.822;2023-05-10T14:22:05;16.20;99.90
24444;DHT22;13346;50.984;5.822;2023-05-10T14:24:32;16.40;99.90
24444;DHT22;13346;50.984;5.822;2023-05-10T14:26:59;16.40;99.90
24444;DHT22;13346;50.984;5.822;2023-05-10T14:29:28;15.90;99.90
24444;DHT22;13346;50.984;5.822;2023-05-10T14:31:55;15.80;99.90
24444;DHT22;13346;50.984;5.822;2023-05-10T14:34:22;15.50;99.90
24444;DHT22;13346;50.984;5.822;2023-05-10T14:36:49;15.30;99.90
24444;DHT22;13346;50.984;5.822;2023-05-10T14:39:16;15.30;99.90
24444;DHT22;13346;50.984;5.822;2023-05-10T14:41:44;15.70;99.90
24444;DHT22;13346;50.984;5.822;2023-05-10T14:44:11;15.20;99.90
24444;DHT22;13346;50.984;5.822;2023-05-10T14:46:40;15.30;99.90
24444;DHT22;13346;50.984;5.822;2023-05-10T14:49:07;15.30;99.90
24444;DHT22;13346;50.984;5.822;2023-05-10T14:51:34;15.60;99.90
24444;DHT22;13346;50.984;5.822;2023-05-10T14:54:02;15.60;99.90
24444;DHT22;13346;50.984;5.822;2023-05-10T14:56:29;15.80;99.90
24444;DHT22;13346;50.984;5.822;2023-05-10T14:58:57;15.30;99.90
24444;DHT22;13346;50.984;5.822;2023-05-10T15:01:24;15.20;99.90
24444;DHT22;13346;50.984;5.822;2023-05-10T15:03:53;15.00;99.90
24444;DHT22;13346;50.984;5.822;2023-05-10T15:06:23;15.00;99.90
24444;DHT22;13346;50.984;5.822;2023-05-10T15:08:51;15.00;99.90
24444;DHT22;13346;50.984;5.822;2023-05-10T15:11:18;15.30;99.90
24444;DHT22;13346;50.984;5.822;2023-05-10T15:13:46;15.10;99.90
24444;DHT22;13346;50.984;5.822;2023-05-10T15:16:13;14.90;99.90
24444;DHT22;13346;50.984;5.822;2023-05-10T15:18:40;15.20;99.90
24444;DHT22;13346;50.984;5.822;2023-05-10T15:21:09;15.10;99.90
24444;DHT22;13346;50.984;5.822;2023-05-10T15:23:36;14.90;99.90
24444;DHT22;13346;50.984;5.822;2023-05-10T15:26:03;15.00;99.90
24444;DHT22;13346;50.984;5.822;2023-05-10T15:28:31;15.10;99.90
24444;DHT22;13346;50.984;5.822;2023-05-10T15:30:58;15.20;99.90
24444;DHT22;13346;50.984;5.822;2023-05-10T15:33:26;15.40;99.90
24444;DHT22;13346;50.984;5.822;2023-05-10T15:35:53;15.00;99.90
24444;DHT22;13346;50.984;5.822;2023-05-10T15:38:22;15.10;99.90
24444;DHT22;13346;50.984;5.822;2023-05-10T15:40:49;15.00;99.90
24444;DHT22;13346;50.984;5.822;2023-05-10T15:43:16;15.10;99.90
24444;DHT22;13346;50.984;5.822;2023-05-10T15:45:43;15.10;99.90
24444;DHT22;13346;50.984;5.822;2023-05-10T15:48:10;14.70;99.90
24444;DHT22;13346;50.984;5.822;2023-05-10T15:50:38;15.00;99.90